sensor_id;sensor_type;location;lat;lon;timestamp;pressure;altitude;pressure_sealevel;temperature;humidity
59971;BME280;45825;45.434;9.116;2024-02-15T00:02:06;101159.31;;;9.29;100.00
59971;BME280;45825;45.434;9.116;2024-02-15T00:04:31;101157.94;;;9.19;100.00
59971;BME280;45825;45.434;9.116;2024-02-15T00:06:58;101158.53;;;9.27;100.00
59971;BME280;45825;45.434;9.116;2024-02-15T00:09:24;101161.13;;;9.29;100.00
59971;BME280;45825;45.434;9.116;2024-02-15T00:11:50;101163.50;;;9.35;100.00
59971;BME280;45825;45.434;9.116;2024-02-15T00:14:15;101165.28;;;9.34;100.00
59971;BME280;45825;45.434;9.116;2024-02-15T00:16:40;101164.75;;;9.25;100.00
59971;BME280;45825;45.434;9.116;2024-02-15T00:19:06;101163.34;;;9.14;100.00
59971;BME280;45825;45.434;9.116;2024-02-15T00:21:32;101163.47;;;9.11;100.00
59971;BME280;45825;45.434;9.116;2024-02-15T00:23:57;101168.50;;;9.17;100.00
59971;BME280;45825;45.434;9.116;2024-02-15T00:26:25;101164.22;;;9.15;100.00
59971;BME280;45825;45.434;9.116;2024-02-15T00:28:51;101161.13;;;9.03;100.00
59971;BME280;45825;45.434;9.116;2024-02-15T00:31:16;101158.00;;;8.92;100.00
59971;BME280;45825;45.434;9.116;2024-02-15T00:33:42;101161.78;;;8.83;100.00
59971;BME280;45825;45.434;9.116;2024-02-15T00:36:07;101163.44;;;8.86;100.00
59971;BME280;45825;45.434;9.116;2024-02-15T00:38:33;101153.75;;;8.88;100.00
59971;BME280;45825;45.434;9.116;2024-02-15T00:41:00;101140.75;;;8.85;100.00
59971;BME280;45825;45.434;9.116;2024-02-15T00:43:26;101145.94;;;8.86;100.00
59971;BME280;45825;45.434;9.116;2024-02-15T00:45:52;101143.25;;;8.88;100.00
59971;BME280;45825;45.434;9.116;2024-02-15T00:48:18;101139.00;;;8.85;100.00
59971;BME280;45825;45.434;9.116;2024-02-15T00:50:43;101140.84;;;8.82;100.00
59971;BME280;45825;45.434;9.116;2024-02-15T00:53:08;101138.22;;;8.82;100.00
59971;BME280;45825;45.434;9.116;2024-02-15T00:55:34;101144.44;;;8.79;100.00
59971;BME280;45825;45.434;9.116;2024-02-15T00:57:59;101151.41;;;8.80;100.00
59971;BME280;45825;45.434;9.116;2024-02-15T01:00:24;101149.50;;;8.85;100.00
59971;BME280;45825;45.434;9.116;2024-02-15T01:02:51;101153.19;;;8.79;100.00
59971;BME280;45825;45.434;9.116;2024-02-15T01:05:18;101154.13;;;8.77;100.00
59971;BME280;45825;45.434;9.116;2024-02-15T01:07:43;101156.28;;;8.64;100.00
59971;BME280;45825;45.434;9.116;2024-02-15T01:10:09;101149.28;;;8.64;100.00
59971;BME280;45825;45.434;9.116;2024-02-15T01:12:34;101149.34;;;8.63;100.00
59971;BME280;45825;45.434;9.116;2024-02-15T01:14:59;101154.84;;;8.55;100.00
59971;BME280;45825;45.434;9.116;2024-02-15T01:17:25;101147.88;;;8.54;100.00
59971;BME280;45825;45.434;9.116;2024-02-15T01:19:50;101152.97;;;8.59;100.00
59971;BME280;45825;45.434;9.116;2024-02-15T01:22:16;101149.81;;;8.47;100.00
59971;BME280;45825;45.434;9.116;2024-02-15T01:24:41;101141.94;;;8.47;100.00
59971;BME280;45825;45.434;9.116;2024-02-15T01:27:07;101147.91;;;8.52;100.00
59971;BME280;45825;45.434;9.116;2024-02-15T01:29:32;101140.16;;;8.48;100.00
59971;BME280;45825;45.434;9.116;2024-02-15T01:31:58;101136.84;;;8.43;100.00
59971;BME280;45825;45.434;9.116;2024-02-15T01:34:23;101127.84;;;8.50;100.00
59971;BME280;45825;45.434;9.116;2024-02-15T01:36:48;101133.97;;;8.52;100.00
59971;BME280;45825;45.434;9.116;2024-02-15T01:39:15;101128.72;;;8.52;100.00
59971;BME280;45825;45.434;9.116;2024-02-15T01:41:46;101121.66;;;8.54;100.00
59971;BME280;45825;45.434;9.116;2024-02-15T01:44:13;101119.13;;;8.51;100.00
59971;BME280;45825;45.434;9.116;2024-02-15T01:46:38;101132.84;;;8.59;100.00
59971;BME280;45825;45.434;9.116;2024-02-15T01:49:03;101124.16;;;8.57;100.00
59971;BME280;45825;45.434;9.116;2024-02-15T01:51:31;101132.44;;;8.43;100.00
59971;BME280;45825;45.434;9.116;2024-02-15T01:53:58;101122.84;;;8.44;100.00
59971;BME280;45825;45.434;9.116;2024-02-15T01:56:25;101123.16;;;8.33;100.00
59971;BME280;45825;45.434;9.116;2024-02-15T01:58:51;101126.56;;;8.36;100.00
59971;BME280;45825;45.434;9.116;2024-02-15T02:01:16;101121.38;;;8.35;100.00
59971;BME280;45825;45.434;9.116;2024-02-15T02:03:42;101119.41;;;8.42;100.00
59971;BME280;45825;45.434;9.116;2024-02-15T02:06:07;101122.19;;;8.37;100.00
59971;BME280;45825;45.434;9.116;2024-02-15T02:08:36;101123.13;;;8.34;100.00
59971;BME280;45825;45.434;9.116;2024-02-15T02:11:02;101119.69;;;8.32;100.00
59971;BME280;45825;45.434;9.116;2024-02-15T02:13:29;101121.56;;;8.29;100.00
59971;BME280;45825;45.434;9.116;2024-02-15T02:15:54;101119.63;;;8.34;100.00
59971;BME280;45825;45.434;9.116;2024-02-15T02:18:19;101118.31;;;8.20;100.00
59971;BME280;45825;45.434;9.116;2024-02-15T02:20:44;101121.44;;;8.32;100.00
59971;BME280;45825;45.434;9.116;2024-02-15T02:23:14;101120.00;;;8.23;100.00
59971;BME280;45825;45.434;9.116;2024-02-15T02:25:40;101114.63;;;8.26;100.00
59971;BME280;45825;45.434;9.116;2024-02-15T02:28:08;101108.63;;;8.22;100.00
59971;BME280;45825;45.434;9.116;2024-02-15T02:30:34;101116.47;;;8.24;100.00
59971;BME280;45825;45.434;9.116;2024-02-15T02:33:00;101123.41;;;8.25;100.00
59971;BME280;45825;45.434;9.116;2024-02-15T02:35:25;101115.94;;;8.13;100.00
59971;BME280;45825;45.434;9.116;2024-02-15T02:37:51;101116.84;;;8.11;100.00
59971;BME280;45825;45.434;9.116;2024-02-15T02:40:18;101103.59;;;8.16;100.00
59971;BME280;45825;45.434;9.116;2024-02-15T02:42:54;101113.22;;;8.16;100.00
59971;BME280;45825;45.434;9.116;2024-02-15T02:45:25;101110.59;;;8.16;100.00
59971;BME280;45825;45.434;9.116;2024-02-15T02:47:51;101115.66;;;8.22;100.00
59971;BME280;45825;45.434;9.116;2024-02-15T02:50:18;101102.81;;;8.14;100.00
59971;BME280;45825;45.434;9.116;2024-02-15T02:52:44;101108.09;;;8.13;100.00
59971;BME280;45825;45.434;9.116;2024-02-15T02:55:09;101107.06;;;8.17;100.00
59971;BME280;45825;45.434;9.116;2024-02-15T02:57:36;101099.66;;;8.03;100.00
59971;BME280;45825;45.434;9.116;2024-02-15T03:00:06;101095.31;;;8.02;100.00
59971;BME280;45825;45.434;9.116;2024-02-15T03:02:41;101101.97;;;8.12;100.00
59971;BME280;45825;45.434;9.116;2024-02-15T03:05:07;101097.09;;;8.01;100.00
59971;BME280;45825;45.434;9.116;2024-02-15T03:07:34;101103.25;;;7.99;100.00
59971;BME280;45825;45.434;9.116;2024-02-15T03:10:00;101098.00;;;8.00;100.00
59971;BME280;45825;45.434;9.116;2024-02-15T03:12:25;101100.47;;;8.05;100.00
59971;BME280;45825;45.434;9.116;2024-02-15T03:14:52;101098.81;;;8.01;100.00
59971;BME280;45825;45.434;9.116;2024-02-15T03:17:17;101100.59;;;8.00;100.00
59971;BME280;45825;45.434;9.116;2024-02-15T03:19:42;101104.13;;;7.99;100.00
59971;BME280;45825;45.434;9.116;2024-02-15T03:22:08;101100.09;;;7.89;100.00
59971;BME280;45825;45.434;9.116;2024-02-15T03:24:33;101097.13;;;8.00;100.00
59971;BME280;45825;45.434;9.116;2024-02-15T03:26:58;101099.75;;;8.00;100.00
59971;BME280;45825;45.434;9.116;2024-02-15T03:29:24;101106.78;;;7.97;100.00
59971;BME280;45825;45.434;9.116;2024-02-15T03:31:50;101114.22;;;7.83;100.00
59971;BME280;45825;45.434;9.116;2024-02-15T03:34:18;101113.25;;;7.86;100.00
59971;BME280;45825;45.434;9.116;2024-02-15T03:36:46;101119.50;;;7.81;100.00
59971;BME280;45825;45.434;9.116;2024-02-15T03:39:13;101117.09;;;7.75;100.00
59971;BME280;45825;45.434;9.116;2024-02-15T03:41:38;101122.13;;;7.81;100.00
59971;BME280;45825;45.434;9.116;2024-02-15T03:44:04;101124.84;;;7.78;100.00
59971;BME280;45825;45.434;9.116;2024-02-15T03:46:29;101122.09;;;7.83;100.00
59971;BME280;45825;45.434;9.116;2024-02-15T03:48:54;101118.59;;;7.82;100.00
59971;BME280;45825;45.434;9.116;2024-02-15T03:51:22;101125.03;;;7.72;100.00
59971;BME280;45825;45.434;9.116;2024-02-15T03:53:50;101124.09;;;7.75;100.00
59971;BME280;45825;45.434;9.116;2024-02-15T03:56:15;101120.06;;;7.63;100.00
59971;BME280;45825;45.434;9.116;2024-02-15T03:58:41;101130.25;;;7.42;100.00
59971;BME280;45825;45.434;9.116;2024-02-15T04:01:06;101124.31;;;7.35;100.00
59971;BME280;45825;45.434;9.116;2024-02-15T04:03:34;101116.69;;;7.27;100.00
59971;BME280;45825;45.434;9.116;2024-02-15T04:06:00;101134.91;;;7.32;100.00
59971;BME280;45825;45.434;9.116;2024-02-15T04:08:26;101123.00;;;7.52;100.00
59971;BME280;45825;45.434;9.116;2024-02-15T04:10:52;101124.75;;;7.51;100.00
59971;BME280;45825;45.434;9.116;2024-02-15T04:13:18;101120.66;;;7.43;100.00
59971;BME280;45825;45.434;9.116;2024-02-15T04:15:44;101115.50;;;7.39;100.00
59971;BME280;45825;45.434;9.116;2024-02-15T04:18:12;101118.25;;;7.35;100.00
59971;BME280;45825;45.434;9.116;2024-02-15T04:20:37;101121.53;;;7.41;100.00
59971;BME280;45825;45.434;9.116;2024-02-15T04:23:03;101119.59;;;7.48;100.00
59971;BME280;45825;45.434;9.116;2024-02-15T04:25:30;101118.13;;;7.39;100.00
59971;BME280;45825;45.434;9.116;2024-02-15T04:27:56;101121.22;;;7.52;100.00
59971;BME280;45825;45.434;9.116;2024-02-15T04:30:23;101118.97;;;7.40;100.00
59971;BME280;45825;45.434;9.116;2024-02-15T04:32:48;101115.31;;;7.46;100.00
59971;BME280;45825;45.434;9.116;2024-02-15T04:35:14;101112.81;;;7.41;100.00
59971;BME280;45825;45.434;9.116;2024-02-15T04:37:39;101120.34;;;7.53;100.00
59971;BME280;45825;45.434;9.116;2024-02-15T04:40:06;101108.78;;;7.61;100.00
59971;BME280;45825;45.434;9.116;2024-02-15T04:42:39;101110.13;;;7.44;100.00
59971;BME280;45825;45.434;9.116;2024-02-15T04:45:05;101108.44;;;7.41;100.00
59971;BME280;45825;45.434;9.116;2024-02-15T04:47:33;101107.78;;;7.35;100.00
59971;BME280;45825;45.434;9.116;2024-02-15T04:49:59;101101.72;;;7.33;100.00
59971;BME280;45825;45.434;9.116;2024-02-15T04:52:24;101098.88;;;7.40;100.00
59971;BME280;45825;45.434;9.116;2024-02-15T04:54:50;101097.97;;;7.41;100.00
59971;BME280;45825;45.434;9.116;2024-02-15T04:57:15;101096.56;;;7.30;100.00
59971;BME280;45825;45.434;9.116;2024-02-15T04:59:42;101099.16;;;7.31;100.00
59971;BME280;45825;45.434;9.116;2024-02-15T05:02:12;101098.22;;;7.34;100.00
59971;BME280;45825;45.434;9.116;2024-02-15T05:04:38;101100.81;;;7.34;100.00
59971;BME280;45825;45.434;9.116;2024-02-15T05:07:03;101103.16;;;7.13;100.00
59971;BME280;45825;45.434;9.116;2024-02-15T05:09:29;101096.78;;;7.22;100.00
59971;BME280;45825;45.434;9.116;2024-02-15T05:11:56;101093.25;;;7.23;100.00
59971;BME280;45825;45.434;9.116;2024-02-15T05:14:22;101100.53;;;7.13;100.00
59971;BME280;45825;45.434;9.116;2024-02-15T05:16:49;101093.47;;;7.15;100.00
59971;BME280;45825;45.434;9.116;2024-02-15T05:19:16;101108.13;;;7.22;100.00
59971;BME280;45825;45.434;9.116;2024-02-15T05:21:42;101108.25;;;7.18;100.00
59971;BME280;45825;45.434;9.116;2024-02-15T05:24:16;101111.94;;;7.10;100.00
59971;BME280;45825;45.434;9.116;2024-02-15T05:26:43;101112.38;;;7.26;100.00
59971;BME280;45825;45.434;9.116;2024-02-15T05:29:10;101123.84;;;7.22;100.00
59971;BME280;45825;45.434;9.116;2024-02-15T05:31:36;101106.53;;;7.17;100.00
59971;BME280;45825;45.434;9.116;2024-02-15T05:34:04;101108.38;;;7.13;100.00
59971;BME280;45825;45.434;9.116;2024-02-15T05:36:31;101108.47;;;7.10;100.00
59971;BME280;45825;45.434;9.116;2024-02-15T05:38:56;101106.69;;;7.10;100.00
59971;BME280;45825;45.434;9.116;2024-02-15T05:41:23;101108.59;;;7.05;100.00
59971;BME280;45825;45.434;9.116;2024-02-15T05:43:49;101110.75;;;7.22;100.00
59971;BME280;45825;45.434;9.116;2024-02-15T05:46:18;101116.88;;;7.21;100.00
59971;BME280;45825;45.434;9.116;2024-02-15T05:48:43;101105.25;;;7.32;100.00
59971;BME280;45825;45.434;9.116;2024-02-15T05:51:09;101110.06;;;7.16;100.00
59971;BME280;45825;45.434;9.116;2024-02-15T05:53:35;101111.78;;;7.17;100.00
59971;BME280;45825;45.434;9.116;2024-02-15T05:56:05;101115.13;;;7.20;100.00
59971;BME280;45825;45.434;9.116;2024-02-15T05:58:32;101104.75;;;7.17;100.00
59971;BME280;45825;45.434;9.116;2024-02-15T06:00:58;101107.22;;;7.23;100.00
59971;BME280;45825;45.434;9.116;2024-02-15T06:03:31;101107.94;;;7.29;100.00
59971;BME280;45825;45.434;9.116;2024-02-15T06:05:58;101110.56;;;7.29;100.00
59971;BME280;45825;45.434;9.116;2024-02-15T06:08:25;101114.06;;;7.27;100.00
59971;BME280;45825;45.434;9.116;2024-02-15T06:10:51;101116.59;;;7.31;100.00
59971;BME280;45825;45.434;9.116;2024-02-15T06:13:17;101107.91;;;7.30;100.00
59971;BME280;45825;45.434;9.116;2024-02-15T06:15:43;101119.69;;;7.13;100.00
59971;BME280;45825;45.434;9.116;2024-02-15T06:18:08;101125.78;;;7.14;100.00
59971;BME280;45825;45.434;9.116;2024-02-15T06:20:37;101130.84;;;7.20;100.00
59971;BME280;45825;45.434;9.116;2024-02-15T06:23:04;101128.31;;;7.17;100.00
59971;BME280;45825;45.434;9.116;2024-02-15T06:25:40;101126.97;;;7.02;100.00
59971;BME280;45825;45.434;9.116;2024-02-15T06:28:05;101122.84;;;6.93;100.00
59971;BME280;45825;45.434;9.116;2024-02-15T06:30:44;101126.00;;;7.06;100.00
59971;BME280;45825;45.434;9.116;2024-02-15T06:33:28;101126.91;;;7.05;100.00
59971;BME280;45825;45.434;9.116;2024-02-15T06:36:12;101136.25;;;7.14;100.00
59971;BME280;45825;45.434;9.116;2024-02-15T06:38:55;101136.47;;;7.06;100.00
59971;BME280;45825;45.434;9.116;2024-02-15T06:41:39;101135.00;;;6.96;100.00
59971;BME280;45825;45.434;9.116;2024-02-15T06:44:05;101135.00;;;6.96;100.00
59971;BME280;45825;45.434;9.116;2024-02-15T06:46:31;101134.81;;;7.02;100.00
59971;BME280;45825;45.434;9.116;2024-02-15T06:48:56;101135.38;;;7.15;100.00
59971;BME280;45825;45.434;9.116;2024-02-15T06:51:23;101136.84;;;7.24;100.00
59971;BME280;45825;45.434;9.116;2024-02-15T06:53:49;101136.84;;;7.25;100.00
59971;BME280;45825;45.434;9.116;2024-02-15T06:56:16;101145.69;;;7.21;100.00
59971;BME280;45825;45.434;9.116;2024-02-15T06:58:41;101144.09;;;7.16;100.00
59971;BME280;45825;45.434;9.116;2024-02-15T07:01:07;101135.47;;;7.12;100.00
59971;BME280;45825;45.434;9.116;2024-02-15T07:03:32;101144.94;;;7.16;100.00
59971;BME280;45825;45.434;9.116;2024-02-15T07:05:58;101141.97;;;7.29;100.00
59971;BME280;45825;45.434;9.116;2024-02-15T07:08:23;101148.09;;;7.29;100.00
59971;BME280;45825;45.434;9.116;2024-02-15T07:10:51;101145.53;;;7.26;100.00
59971;BME280;45825;45.434;9.116;2024-02-15T07:13:17;101141.97;;;7.29;100.00
59971;BME280;45825;45.434;9.116;2024-02-15T07:15:44;101143.56;;;7.34;100.00
59971;BME280;45825;45.434;9.116;2024-02-15T07:18:12;101143.63;;;7.33;100.00
59971;BME280;45825;45.434;9.116;2024-02-15T07:20:37;101143.44;;;7.39;100.00
59971;BME280;45825;45.434;9.116;2024-02-15T07:23:03;101145.69;;;7.51;100.00
59971;BME280;45825;45.434;9.116;2024-02-15T07:25:28;101153.53;;;7.53;100.00
59971;BME280;45825;45.434;9.116;2024-02-15T07:27:54;101149.72;;;7.65;100.00
59971;BME280;45825;45.434;9.116;2024-02-15T07:30:19;101152.00;;;7.76;100.00
59971;BME280;45825;45.434;9.116;2024-02-15T07:32:45;101146.84;;;7.73;100.00
59971;BME280;45825;45.434;9.116;2024-02-15T07:35:11;101144.16;;;7.74;100.00
59971;BME280;45825;45.434;9.116;2024-02-15T07:37:36;101142.00;;;7.89;100.00
59971;BME280;45825;45.434;9.116;2024-02-15T07:40:02;101152.63;;;7.84;100.00
59971;BME280;45825;45.434;9.116;2024-02-15T07:42:29;101147.50;;;7.81;100.00
59971;BME280;45825;45.434;9.116;2024-02-15T07:44:54;101148.31;;;7.83;100.00
59971;BME280;45825;45.434;9.116;2024-02-15T07:47:20;101145.03;;;8.05;100.00
59971;BME280;45825;45.434;9.116;2024-02-15T07:49:49;101142.41;;;8.05;100.00
59971;BME280;45825;45.434;9.116;2024-02-15T07:52:15;101141.00;;;8.21;100.00
59971;BME280;45825;45.434;9.116;2024-02-15T07:54:40;101141.44;;;8.36;100.00
59971;BME280;45825;45.434;9.116;2024-02-15T07:57:05;101142.50;;;8.30;100.00
59971;BME280;45825;45.434;9.116;2024-02-15T07:59:31;101154.31;;;8.15;100.00
59971;BME280;45825;45.434;9.116;2024-02-15T08:01:56;101151.25;;;8.01;100.00
59971;BME280;45825;45.434;9.116;2024-02-15T08:04:23;101151.94;;;8.07;100.00
59971;BME280;45825;45.434;9.116;2024-02-15T08:06:50;101151.50;;;8.21;100.00
59971;BME280;45825;45.434;9.116;2024-02-15T08:09:17;101147.63;;;8.33;100.00
59971;BME280;45825;45.434;9.116;2024-02-15T08:11:45;101138.56;;;8.44;100.00
59971;BME280;45825;45.434;9.116;2024-02-15T08:14:10;101141.34;;;8.39;100.00
59971;BME280;45825;45.434;9.116;2024-02-15T08:16:38;101138.34;;;8.50;100.00
59971;BME280;45825;45.434;9.116;2024-02-15T08:19:05;101132.84;;;8.59;100.00
59971;BME280;45825;45.434;9.116;2024-02-15T08:21:32;101140.09;;;8.78;100.00
59971;BME280;45825;45.434;9.116;2024-02-15T08:24:02;101141.75;;;8.80;100.00
59971;BME280;45825;45.434;9.116;2024-02-15T08:26:38;101141.69;;;8.82;100.00
59971;BME280;45825;45.434;9.116;2024-02-15T08:29:05;101140.22;;;9.00;100.00
59971;BME280;45825;45.434;9.116;2024-02-15T08:31:31;101130.75;;;9.20;100.00
59971;BME280;45825;45.434;9.116;2024-02-15T08:33:57;101134.31;;;9.19;100.00
59971;BME280;45825;45.434;9.116;2024-02-15T08:36:22;101137.22;;;9.11;100.00
59971;BME280;45825;45.434;9.116;2024-02-15T08:38:49;101134.47;;;9.14;100.00
59971;BME280;45825;45.434;9.116;2024-02-15T08:41:15;101138.63;;;9.20;100.00
59971;BME280;45825;45.434;9.116;2024-02-15T08:43:43;101127.94;;;9.26;100.00
59971;BME280;45825;45.434;9.116;2024-02-15T08:46:08;101132.97;;;9.32;100.00
59971;BME280;45825;45.434;9.116;2024-02-15T08:48:35;101133.16;;;9.52;100.00
59971;BME280;45825;45.434;9.116;2024-02-15T08:51:01;101131.81;;;9.63;100.00
59971;BME280;45825;45.434;9.116;2024-02-15T08:53:26;101127.63;;;9.58;100.00
59971;BME280;45825;45.434;9.116;2024-02-15T08:55:52;101127.63;;;9.58;100.00
59971;BME280;45825;45.434;9.116;2024-02-15T08:58:18;101125.72;;;9.63;100.00
59971;BME280;45825;45.434;9.116;2024-02-15T09:00:44;101119.81;;;9.80;100.00
59971;BME280;45825;45.434;9.116;2024-02-15T09:03:13;101128.78;;;9.97;100.00
59971;BME280;45825;45.434;9.116;2024-02-15T09:05:39;101117.56;;;10.15;100.00
59971;BME280;45825;45.434;9.116;2024-02-15T09:08:06;101124.34;;;10.21;100.00
59971;BME280;45825;45.434;9.116;2024-02-15T09:10:32;101128.16;;;10.14;100.00
59971;BME280;45825;45.434;9.116;2024-02-15T09:12:57;101123.41;;;10.22;100.00
59971;BME280;45825;45.434;9.116;2024-02-15T09:15:22;101126.25;;;10.17;100.00
59971;BME280;45825;45.434;9.116;2024-02-15T09:17:48;101125.13;;;10.23;100.00
59971;BME280;45825;45.434;9.116;2024-02-15T09:20:15;101130.84;;;10.12;100.00
59971;BME280;45825;45.434;9.116;2024-02-15T09:22:41;101132.78;;;10.07;100.00
59971;BME280;45825;45.434;9.116;2024-02-15T09:25:08;101132.84;;;10.05;100.00
59971;BME280;45825;45.434;9.116;2024-02-15T09:27:33;101143.19;;;10.10;100.00
59971;BME280;45825;45.434;9.116;2024-02-15T09:30:00;101139.56;;;10.13;100.00
59971;BME280;45825;45.434;9.116;2024-02-15T09:32:25;101139.56;;;10.13;100.00
59971;BME280;45825;45.434;9.116;2024-02-15T09:34:50;101137.81;;;10.13;100.00
59971;BME280;45825;45.434;9.116;2024-02-15T09:37:16;101133.03;;;10.23;100.00
59971;BME280;45825;45.434;9.116;2024-02-15T09:39:41;101134.44;;;10.32;100.00
59971;BME280;45825;45.434;9.116;2024-02-15T09:42:07;101128.50;;;10.27;100.00
59971;BME280;45825;45.434;9.116;2024-02-15T09:44:32;101130.56;;;10.18;100.00
59971;BME280;45825;45.434;9.116;2024-02-15T09:47:05;101127.47;;;10.31;100.00
59971;BME280;45825;45.434;9.116;2024-02-15T09:49:40;101128.50;;;10.27;100.00
59971;BME280;45825;45.434;9.116;2024-02-15T09:52:09;101122.66;;;10.42;100.00
59971;BME280;45825;45.434;9.116;2024-02-15T09:54:41;101122.88;;;10.58;100.00
59971;BME280;45825;45.434;9.116;2024-02-15T09:57:11;101124.03;;;10.73;100.00
59971;BME280;45825;45.434;9.116;2024-02-15T09:59:40;101121.44;;;10.93;100.00
59971;BME280;45825;45.434;9.116;2024-02-15T10:02:07;101126.16;;;11.05;100.00
59971;BME280;45825;45.434;9.116;2024-02-15T10:04:42;101125.81;;;11.13;100.00
59971;BME280;45825;45.434;9.116;2024-02-15T10:07:07;101129.56;;;11.28;100.00
59971;BME280;45825;45.434;9.116;2024-02-15T10:09:34;101133.00;;;11.09;100.00
59971;BME280;45825;45.434;9.116;2024-02-15T10:12:02;101123.00;;;11.17;100.00
59971;BME280;45825;45.434;9.116;2024-02-15T10:14:29;101122.53;;;11.28;100.00
59971;BME280;45825;45.434;9.116;2024-02-15T10:16:55;101127.06;;;11.25;100.00
59971;BME280;45825;45.434;9.116;2024-02-15T10:19:21;101131.34;;;11.27;100.00
59971;BME280;45825;45.434;9.116;2024-02-15T10:21:54;101128.66;;;11.48;100.00
59971;BME280;45825;45.434;9.116;2024-02-15T10:24:24;101123.63;;;11.43;100.00
59971;BME280;45825;45.434;9.116;2024-02-15T10:26:51;101124.25;;;11.29;100.00
59971;BME280;45825;45.434;9.116;2024-02-15T10:29:18;101123.00;;;11.17;100.00
59971;BME280;45825;45.434;9.116;2024-02-15T10:31:55;101118.59;;;11.18;100.00
59971;BME280;45825;45.434;9.116;2024-02-15T10:34:21;101115.66;;;11.24;100.00
59971;BME280;45825;45.434;9.116;2024-02-15T10:36:47;101119.03;;;11.28;100.00
59971;BME280;45825;45.434;9.116;2024-02-15T10:39:19;101116.84;;;11.57;100.00
59971;BME280;45825;45.434;9.116;2024-02-15T10:41:49;101118.19;;;11.66;100.00
59971;BME280;45825;45.434;9.116;2024-02-15T10:44:18;101112.72;;;11.70;100.00
59971;BME280;45825;45.434;9.116;2024-02-15T10:46:48;101105.94;;;11.65;100.00
59971;BME280;45825;45.434;9.116;2024-02-15T10:49:25;101111.22;;;11.65;100.00
59971;BME280;45825;45.434;9.116;2024-02-15T10:51:57;101102.09;;;11.72;100.00
59971;BME280;45825;45.434;9.116;2024-02-15T10:57:04;101104.53;;;11.77;100.00
59971;BME280;45825;45.434;9.116;2024-02-15T10:59:32;101099.97;;;11.61;100.00
59971;BME280;45825;45.434;9.116;2024-02-15T11:02:00;101095.34;;;11.66;100.00
59971;BME280;45825;45.434;9.116;2024-02-15T11:04:31;101088.13;;;11.70;100.00
59971;BME280;45825;45.434;9.116;2024-02-15T11:07:00;101082.41;;;11.79;100.00
59971;BME280;45825;45.434;9.116;2024-02-15T11:09:26;101080.59;;;11.81;100.00
59971;BME280;45825;45.434;9.116;2024-02-15T11:11:54;101075.78;;;11.90;100.00
59971;BME280;45825;45.434;9.116;2024-02-15T11:14:30;101070.13;;;11.97;100.00
59971;BME280;45825;45.434;9.116;2024-02-15T11:17:00;101078.88;;;12.17;97.80
59971;BME280;45825;45.434;9.116;2024-02-15T11:22:14;101063.00;;;12.19;100.00
59971;BME280;45825;45.434;9.116;2024-02-15T11:24:51;101059.66;;;12.33;96.43
59971;BME280;45825;45.434;9.116;2024-02-15T11:27:30;101067.63;;;12.13;97.09
59971;BME280;45825;45.434;9.116;2024-02-15T11:29:58;101054.16;;;12.37;95.12
59971;BME280;45825;45.434;9.116;2024-02-15T11:32:34;101049.41;;;12.26;98.68
59971;BME280;45825;45.434;9.116;2024-02-15T11:35:04;101048.66;;;12.42;97.25
59971;BME280;45825;45.434;9.116;2024-02-15T11:40:13;101046.69;;;12.46;98.34
59971;BME280;45825;45.434;9.116;2024-02-15T11:42:38;101044.09;;;12.62;94.94
59971;BME280;45825;45.434;9.116;2024-02-15T11:45:05;101036.81;;;12.67;96.88
59971;BME280;45825;45.434;9.116;2024-02-15T11:47:37;101031.78;;;12.96;94.23
59971;BME280;45825;45.434;9.116;2024-02-15T11:50:08;101028.50;;;13.08;95.13
59971;BME280;45825;45.434;9.116;2024-02-15T11:52:40;101026.69;;;13.09;92.69
59971;BME280;45825;45.434;9.116;2024-02-15T11:55:07;101032.06;;;13.07;94.88
59971;BME280;45825;45.434;9.116;2024-02-15T11:57:39;101027.44;;;13.11;92.68
59971;BME280;45825;45.434;9.116;2024-02-15T12:00:25;101027.22;;;13.32;87.28
59971;BME280;45825;45.434;9.116;2024-02-15T12:03:09;101016.16;;;13.41;90.50
59971;BME280;45825;45.434;9.116;2024-02-15T12:05:57;101019.19;;;13.51;84.84
59971;BME280;45825;45.434;9.116;2024-02-15T12:08:44;101015.22;;;13.58;83.34
59971;BME280;45825;45.434;9.116;2024-02-15T12:11:28;101016.53;;;13.51;83.52
59971;BME280;45825;45.434;9.116;2024-02-15T12:14:14;101011.75;;;13.58;81.92
59971;BME280;45825;45.434;9.116;2024-02-15T12:17:02;101006.44;;;13.25;81.70
59971;BME280;45825;45.434;9.116;2024-02-15T12:19:49;101001.22;;;13.08;87.72
59971;BME280;45825;45.434;9.116;2024-02-15T12:22:20;100998.50;;;13.09;84.24
59971;BME280;45825;45.434;9.116;2024-02-15T12:24:56;100997.03;;;13.04;87.51
59971;BME280;45825;45.434;9.116;2024-02-15T12:27:22;100998.50;;;13.09;88.09
59971;BME280;45825;45.434;9.116;2024-02-15T12:29:55;100995.19;;;13.22;93.03
59971;BME280;45825;45.434;9.116;2024-02-15T12:32:25;100992.03;;;13.31;88.09
59971;BME280;45825;45.434;9.116;2024-02-15T12:34:51;100987.25;;;13.22;84.00
59971;BME280;45825;45.434;9.116;2024-02-15T12:37:22;100989.28;;;13.17;82.09
59971;BME280;45825;45.434;9.116;2024-02-15T12:39:49;100981.53;;;13.13;79.76
59971;BME280;45825;45.434;9.116;2024-02-15T12:42:15;100982.81;;;13.06;81.30
59971;BME280;45825;45.434;9.116;2024-02-15T12:44:45;100970.78;;;13.01;81.59
59971;BME280;45825;45.434;9.116;2024-02-15T12:47:19;100972.41;;;13.03;81.67
59971;BME280;45825;45.434;9.116;2024-02-15T12:49:44;100969.69;;;13.05;81.25
59971;BME280;45825;45.434;9.116;2024-02-15T12:52:34;100965.66;;;13.13;81.59
59971;BME280;45825;45.434;9.116;2024-02-15T12:55:17;100966.97;;;13.22;82.04
59971;BME280;45825;45.434;9.116;2024-02-15T12:57:47;100956.09;;;13.43;84.20
59971;BME280;45825;45.434;9.116;2024-02-15T13:00:15;100944.78;;;13.57;79.93